AFR026 KLAX-NTAA
Flight info
| Callsign | AFR026 |
|---|---|
| Flight time | N/A |
| Altitude | 38000 |
| Route | SUMMR2 FICKY DCT HILCO DCT 25N126W 20N128W 15N130W 10N132W 0330N13555W/N0481F400 00N138W 05S141W 10S144W 15S147W DCT ASOKI ASOKI4T |
| Aircraft | A359/H-SDE2E3GHIJ3J4J5LM1ORWXY/LB1D1 |
Departure
| Time | 2026-04-21 22:15 |
|---|---|
| Airport | Los Angeles International Airport (KLAX) |
Arrival
| Time | N/A |
|---|---|
| Airport | Fa'a'ā International Airport (NTAA) |
| Time | Latitude | Longitude | Altitude | Speed | Heading |
|---|---|---|---|---|---|
| 2026-04-21 21:37 | 33.94260 | -118.41134 | 132 ft | 0 kts | 86° |
| 2026-04-21 21:46 | 33.94260 | -118.41135 | 132 ft | 0 kts | 86° |
| 2026-04-21 22:02 | 33.94259 | -118.41139 | 132 ft | 2 kts | 86° |
| 2026-04-21 22:02 | 33.94257 | -118.41158 | 129 ft | 2 kts | 79° |
| 2026-04-21 22:02 | 33.94253 | -118.41177 | 128 ft | 2 kts | 68° |
| 2026-04-21 22:02 | 33.94245 | -118.41195 | 132 ft | 2 kts | 50° |
| 2026-04-21 22:03 | 33.94233 | -118.41208 | 130 ft | 2 kts | 24° |
| 2026-04-21 22:03 | 33.94217 | -118.41213 | 129 ft | 2 kts | 1° |
| 2026-04-21 22:03 | 33.94208 | -118.41213 | 132 ft | 0 kts | 354° |
| 2026-04-21 22:09 | 33.94236 | -118.41217 | 130 ft | 9 kts | 353° |
| 2026-04-21 22:09 | 33.94304 | -118.41227 | 130 ft | 10 kts | 352° |
| 2026-04-21 22:09 | 33.94376 | -118.41238 | 128 ft | 11 kts | 353° |
| 2026-04-21 22:09 | 33.94454 | -118.41250 | 129 ft | 12 kts | 353° |
| 2026-04-21 22:10 | 33.94536 | -118.41262 | 129 ft | 12 kts | 352° |
| 2026-04-21 22:10 | 33.94623 | -118.41275 | 129 ft | 13 kts | 353° |
| 2026-04-21 22:10 | 33.94706 | -118.41288 | 130 ft | 11 kts | 353° |
| 2026-04-21 22:10 | 33.94771 | -118.41283 | 124 ft | 9 kts | 27° |
| 2026-04-21 22:11 | 33.94799 | -118.41219 | 125 ft | 9 kts | 75° |
| 2026-04-21 22:11 | 33.94809 | -118.41142 | 132 ft | 10 kts | 83° |
| 2026-04-21 22:11 | 33.94818 | -118.41060 | 129 ft | 10 kts | 83° |
| 2026-04-21 22:11 | 33.94828 | -118.40969 | 125 ft | 12 kts | 83° |
| 2026-04-21 22:12 | 33.94839 | -118.40851 | 132 ft | 15 kts | 84° |
| 2026-04-21 22:12 | 33.94847 | -118.40766 | 126 ft | 16 kts | 82° |
| 2026-04-21 22:12 | 33.94861 | -118.40637 | 123 ft | 16 kts | 83° |
| 2026-04-21 22:12 | 33.94875 | -118.40508 | 123 ft | 15 kts | 84° |
| 2026-04-21 22:13 | 33.94886 | -118.40384 | 132 ft | 15 kts | 83° |
| 2026-04-21 22:13 | 33.94899 | -118.40262 | 125 ft | 15 kts | 82° |
| 2026-04-21 22:13 | 33.94913 | -118.40140 | 129 ft | 15 kts | 83° |
| 2026-04-21 22:13 | 33.94924 | -118.40027 | 132 ft | 12 kts | 83° |
| 2026-04-21 22:14 | 33.94946 | -118.39936 | 126 ft | 11 kts | 53° |
| 2026-04-21 22:14 | 33.95011 | -118.39921 | 130 ft | 10 kts | 346° |
| 2026-04-21 22:14 | 33.95036 | -118.39973 | 126 ft | 7 kts | 274° |
| 2026-04-21 22:14 | 33.95021 | -118.40155 | 127 ft | 49 kts | 263° |
| 2026-04-21 22:15 | 33.94954 | -118.40802 | 126 ft | 105 kts | 263° |
| 2026-04-21 22:15 | 33.94844 | -118.41876 | 134 ft | 152 kts | 263° |
| 2026-04-21 22:15 | 33.94726 | -118.43212 | 594 ft | 158 kts | 261° |
| 2026-04-21 22:15 | 33.94626 | -118.44498 | 1377 ft | 150 kts | 261° |
| 2026-04-21 22:16 | 33.94553 | -118.45778 | 1782 ft | 155 kts | 262° |
| 2026-04-21 22:16 | 33.94474 | -118.47106 | 2055 ft | 164 kts | 260° |
| 2026-04-21 22:16 | 33.94323 | -118.48497 | 2331 ft | 171 kts | 257° |
| 2026-04-21 22:16 | 33.94154 | -118.49950 | 2646 ft | 179 kts | 260° |
| 2026-04-21 22:17 | 33.94070 | -118.51458 | 3112 ft | 181 kts | 263° |
| 2026-04-21 22:17 | 33.94028 | -118.52988 | 3510 ft | 184 kts | 264° |
| 2026-04-21 22:17 | 33.93957 | -118.54583 | 3793 ft | 199 kts | 263° |
| 2026-04-21 22:17 | 33.93850 | -118.56296 | 4093 ft | 211 kts | 263° |
| 2026-04-21 22:18 | 33.93725 | -118.58095 | 4515 ft | 219 kts | 262° |
| 2026-04-21 22:18 | 33.93555 | -118.59940 | 5022 ft | 223 kts | 261° |
| 2026-04-21 22:18 | 33.93360 | -118.61780 | 5540 ft | 227 kts | 260° |
| 2026-04-21 22:18 | 33.93143 | -118.63723 | 5915 ft | 240 kts | 260° |
| 2026-04-21 22:19 | 33.92960 | -118.65736 | 6486 ft | 245 kts | 262° |
| 2026-04-21 22:19 | 33.92848 | -118.67815 | 7051 ft | 251 kts | 264° |
| 2026-04-21 22:19 | 33.92750 | -118.69912 | 7718 ft | 250 kts | 263° |
| 2026-04-21 22:19 | 33.92626 | -118.72025 | 8265 ft | 255 kts | 262° |
| 2026-04-21 22:20 | 33.92466 | -118.74168 | 8828 ft | 260 kts | 261° |
| 2026-04-21 22:20 | 33.92275 | -118.76352 | 9444 ft | 263 kts | 261° |
| 2026-04-21 22:20 | 33.92084 | -118.78555 | 10086 ft | 265 kts | 261° |
| 2026-04-21 22:20 | 33.91893 | -118.80811 | 10437 ft | 277 kts | 261° |
| 2026-04-21 22:21 | 33.91729 | -118.83185 | 10720 ft | 291 kts | 264° |
| 2026-04-21 22:21 | 33.91733 | -118.85678 | 11006 ft | 304 kts | 268° |
| 2026-04-21 22:21 | 33.91808 | -118.88273 | 11245 ft | 316 kts | 269° |
| 2026-04-21 22:21 | 33.91899 | -118.90961 | 11502 ft | 327 kts | 269° |
| 2026-04-21 22:22 | 33.91991 | -118.93724 | 11896 ft | 332 kts | 269° |
| 2026-04-21 22:22 | 33.92080 | -118.96500 | 12412 ft | 332 kts | 269° |
| 2026-04-21 22:22 | 33.92157 | -118.99288 | 12938 ft | 333 kts | 268° |
| 2026-04-21 22:22 | 33.91946 | -119.02042 | 13430 ft | 330 kts | 255° |
| 2026-04-21 22:23 | 33.91201 | -119.04658 | 13932 ft | 330 kts | 247° |
| 2026-04-21 22:23 | 33.90281 | -119.07197 | 14345 ft | 332 kts | 245° |
| 2026-04-21 22:23 | 33.89338 | -119.09739 | 14760 ft | 333 kts | 246° |
| 2026-04-21 22:23 | 33.88408 | -119.12257 | 15184 ft | 334 kts | 246° |
| 2026-04-21 22:24 | 33.87466 | -119.14825 | 15600 ft | 336 kts | 246° |
| 2026-04-21 22:24 | 33.86521 | -119.17408 | 16020 ft | 337 kts | 246° |
| 2026-04-21 22:24 | 33.85575 | -119.19997 | 16465 ft | 338 kts | 246° |
| 2026-04-21 22:24 | 33.84626 | -119.22595 | 16893 ft | 339 kts | 246° |
| 2026-04-21 22:25 | 33.83674 | -119.25202 | 17303 ft | 341 kts | 246° |
| 2026-04-21 22:25 | 33.82730 | -119.27785 | 17694 ft | 343 kts | 246° |
| 2026-04-21 22:25 | 33.81768 | -119.30413 | 18114 ft | 344 kts | 246° |
| 2026-04-21 22:25 | 33.80685 | -119.32977 | 18504 ft | 345 kts | 240° |
| 2026-04-21 22:26 | 33.79269 | -119.35339 | 18817 ft | 349 kts | 231° |
| 2026-04-21 22:26 | 33.77518 | -119.37377 | 19129 ft | 354 kts | 223° |
| 2026-04-21 22:26 | 33.75582 | -119.39226 | 19475 ft | 356 kts | 221° |
| 2026-04-21 22:26 | 33.73615 | -119.41045 | 19809 ft | 357 kts | 221° |
| 2026-04-21 22:27 | 33.71639 | -119.42877 | 20113 ft | 359 kts | 221° |
| 2026-04-21 22:27 | 33.69657 | -119.44723 | 20436 ft | 361 kts | 221° |
| 2026-04-21 22:27 | 33.67668 | -119.46579 | 20760 ft | 362 kts | 221° |
| 2026-04-21 22:27 | 33.65675 | -119.48441 | 21074 ft | 364 kts | 221° |
| 2026-04-21 22:28 | 33.63674 | -119.50312 | 21381 ft | 366 kts | 221° |
| 2026-04-21 22:28 | 33.61686 | -119.52172 | 21681 ft | 368 kts | 221° |
| 2026-04-21 22:28 | 33.59663 | -119.54062 | 21993 ft | 369 kts | 221° |
| 2026-04-21 22:28 | 33.57628 | -119.55963 | 22311 ft | 371 kts | 221° |
| 2026-04-21 22:29 | 33.56443 | -119.57070 | 22470 ft | 372 kts | 221° |
| 2026-04-21 22:29 | 33.56372 | -119.57136 | 22480 ft | 372 kts | 221° |